createdAt,value
2023-02-22T00:00:43.117Z,100124.25
2023-02-22T00:03:25.618Z,100118.81
2023-02-22T00:05:58.532Z,100118.16
2023-02-22T00:08:30.594Z,100129.28
2023-02-22T00:10:58.559Z,100129.28
2023-02-22T00:13:25.733Z,100130.16
2023-02-22T00:15:52.624Z,100137.97
2023-02-22T00:18:19.737Z,100134.50
2023-02-22T00:20:46.723Z,100136.31
2023-02-22T00:23:19.020Z,100145.66
2023-02-22T00:25:50.337Z,100145.78
2023-02-22T00:28:18.997Z,100147.53
2023-02-22T00:30:46.259Z,100143.22
2023-02-22T00:33:13.974Z,100142.25
2023-02-22T00:35:41.674Z,100152.41
2023-02-22T00:38:08.607Z,100148.72
2023-02-22T00:40:35.734Z,100148.56
2023-02-22T00:43:04.525Z,100155.19
2023-02-22T00:45:32.962Z,100157.53
2023-02-22T00:48:00.498Z,100154.78
2023-02-22T00:50:29.583Z,100165.66
2023-02-22T00:52:57.666Z,100160.47
2023-02-22T00:55:28.139Z,100168.16
2023-02-22T00:57:55.849Z,100163.00
2023-02-22T01:00:32.431Z,100160.44
2023-02-22T01:02:59.712Z,100166.44
2023-02-22T01:05:29.247Z,100167.13
2023-02-22T01:07:57.923Z,100163.41
2023-02-22T01:10:26.364Z,100173.47
2023-02-22T01:12:54.537Z,100171.75
2023-02-22T01:15:23.368Z,100170.88
2023-02-22T01:17:52.007Z,100170.88
2023-02-22T01:20:20.403Z,100170.84
2023-02-22T01:22:48.500Z,100175.03
2023-02-22T01:25:19.411Z,100182.63
2023-02-22T01:27:46.432Z,100182.72
2023-02-22T01:30:14.649Z,100182.84
2023-02-22T01:32:42.419Z,100191.50
2023-02-22T01:35:13.741Z,100192.38
2023-02-22T01:37:41.519Z,100195.84
2023-02-22T01:40:10.125Z,100192.44
2023-02-22T01:42:37.247Z,100193.47
2023-02-22T01:45:43.911Z,100192.66
2023-02-22T01:48:28.592Z,100198.78
2023-02-22T01:51:01.808Z,100198.75
2023-02-22T01:53:34.298Z,100199.53
2023-02-22T01:56:01.686Z,100202.97
2023-02-22T01:58:30.806Z,100202.22
2023-02-22T02:00:57.946Z,100202.38
2023-02-22T02:03:29.095Z,100197.41
2023-02-22T02:06:00.124Z,100198.38
2023-02-22T02:08:49.831Z,100196.75
2023-02-22T02:11:20.210Z,100196.00
2023-02-22T02:13:51.139Z,100197.78
2023-02-22T02:16:18.227Z,100197.06
2023-02-22T02:18:45.036Z,100197.09
2023-02-22T02:21:32.048Z,100196.28
2023-02-22T02:24:39.772Z,100194.59
2023-02-22T02:27:19.520Z,100197.19
2023-02-22T02:30:26.142Z,100201.41
2023-02-22T02:33:16.759Z,100197.09
2023-02-22T02:36:01.322Z,100190.91
2023-02-22T02:38:56.185Z,100193.41
2023-02-22T02:41:28.077Z,100194.28
2023-02-22T02:43:57.662Z,100197.06
2023-02-22T02:46:47.336Z,100191.88
2023-02-22T02:49:22.437Z,100194.41
2023-02-22T02:51:53.887Z,100195.19
2023-02-22T02:54:21.965Z,100197.78
2023-02-22T02:56:52.555Z,100198.56
2023-02-22T02:59:32.686Z,100205.34
2023-02-22T03:02:24.129Z,100208.72
2023-02-22T03:05:16.582Z,100199.28
2023-02-22T03:08:14.895Z,100207.84
2023-02-22T03:11:01.816Z,100204.41
2023-02-22T03:13:51.360Z,100210.41
2023-02-22T03:16:46.334Z,100213.84
2023-02-22T03:19:28.496Z,100219.91
2023-02-22T03:22:14.106Z,100224.22
2023-02-22T03:24:56.084Z,100230.22
2023-02-22T03:27:31.959Z,100225.97
2023-02-22T03:30:05.777Z,100224.41
2023-02-22T03:32:37.168Z,100223.53
2023-02-22T03:35:13.109Z,100228.75
2023-02-22T03:37:42.870Z,100221.13
2023-02-22T03:40:14.357Z,100222.03
2023-02-22T03:42:52.957Z,100224.69
2023-02-22T03:45:24.864Z,100222.88
2023-02-22T03:48:01.042Z,100233.88
2023-02-22T03:50:35.627Z,100238.97
2023-02-22T03:53:04.660Z,100239.81
2023-02-22T03:55:34.623Z,100239.94
2023-02-22T03:58:09.680Z,100247.59
2023-02-22T04:00:37.824Z,100251.03
2023-02-22T04:03:05.414Z,100245.06
2023-02-22T04:09:34.629Z,100256.44
2023-02-22T04:12:01.963Z,100256.44
2023-02-22T04:14:32.528Z,100259.81
2023-02-22T04:16:59.819Z,100264.03
2023-02-22T04:19:26.975Z,100264.03
2023-02-22T04:22:27.731Z,100270.91
2023-02-22T04:24:54.739Z,100266.66
2023-02-22T04:27:22.131Z,100274.47
2023-02-22T04:29:49.308Z,100270.28
2023-02-22T04:32:16.457Z,100266.88
2023-02-22T04:34:43.429Z,100271.38
2023-02-22T04:37:10.518Z,100278.31
2023-02-22T04:39:37.465Z,100271.47
2023-02-22T04:42:05.132Z,100272.34
2023-02-22T04:44:33.016Z,100274.13
2023-02-22T04:46:59.956Z,100281.03
2023-02-22T04:49:26.882Z,100281.94
2023-02-22T04:51:55.730Z,100283.69
2023-02-22T04:54:27.664Z,100285.44
2023-02-22T04:56:54.653Z,100284.56
2023-02-22T04:59:22.475Z,100286.25
2023-02-22T05:01:55.322Z,100286.97
2023-02-22T05:04:22.241Z,100285.25
2023-02-22T05:06:49.223Z,100286.06
2023-02-22T05:09:16.221Z,100281.81
2023-02-22T05:11:43.016Z,100281.81
2023-02-22T05:14:09.952Z,100279.13
2023-02-22T05:16:37.081Z,100280.84
2023-02-22T05:19:04.699Z,100276.56
2023-02-22T05:21:31.449Z,100273.09
2023-02-22T05:23:58.582Z,100269.69
2023-02-22T05:26:25.423Z,100276.50
2023-02-22T05:28:52.285Z,100277.25
2023-02-22T05:31:19.725Z,100280.53
2023-02-22T05:33:48.580Z,100283.97
2023-02-22T05:36:16.826Z,100276.03
2023-02-22T05:38:44.823Z,100274.00
2023-02-22T05:41:13.475Z,100286.88
2023-02-22T05:43:41.161Z,100279.31
2023-02-22T05:46:08.648Z,100287.97
2023-02-22T05:48:35.571Z,100285.47
2023-02-22T05:51:03.930Z,100292.50
2023-02-22T05:53:30.917Z,100300.34
2023-02-22T05:55:57.832Z,100314.16
2023-02-22T05:58:24.625Z,100311.47
2023-02-22T06:00:51.510Z,100313.97
2023-02-22T06:03:18.430Z,100322.03
2023-02-22T06:05:45.384Z,100319.66
2023-02-22T06:08:12.263Z,100325.66
2023-02-22T06:10:39.260Z,100318.00
2023-02-22T06:13:06.531Z,100328.34
2023-02-22T06:15:33.673Z,100331.03
2023-02-22T06:18:01.249Z,100330.28
2023-02-22T06:20:29.669Z,100332.81
2023-02-22T06:22:58.601Z,100341.28
2023-02-22T06:25:28.269Z,100348.94
2023-02-22T06:27:55.089Z,100349.97
2023-02-22T06:30:24.238Z,100338.97
2023-02-22T06:32:51.440Z,100348.28
2023-02-22T06:35:18.883Z,100356.06
2023-02-22T06:37:46.335Z,100352.84
2023-02-22T06:40:13.738Z,100353.03
2023-02-22T06:42:40.887Z,100355.75
2023-02-22T06:45:11.411Z,100356.63
2023-02-22T06:47:40.507Z,100354.22
2023-02-22T06:50:09.159Z,100361.09
2023-02-22T06:52:36.034Z,100367.13
2023-02-22T06:55:02.996Z,100363.53
2023-02-22T06:57:29.829Z,100368.88
2023-02-22T06:59:57.502Z,100374.97
2023-02-22T07:02:24.323Z,100376.44
2023-02-22T07:04:51.239Z,100369.81
2023-02-22T07:07:18.442Z,100373.34
2023-02-22T07:09:47.010Z,100374.25
2023-02-22T07:12:14.186Z,100387.44
2023-02-22T07:14:41.157Z,100380.81
2023-02-22T07:17:08.048Z,100384.41
2023-02-22T07:19:34.860Z,100387.63
2023-02-22T07:22:01.721Z,100385.84
2023-02-22T07:24:28.692Z,100391.25
2023-02-22T07:26:55.710Z,100400.97
2023-02-22T07:29:22.681Z,100403.84
2023-02-22T07:31:49.756Z,100400.53
2023-02-22T07:34:16.690Z,100401.44
2023-02-22T07:36:43.761Z,100400.78
2023-02-22T07:39:11.225Z,100412.13
2023-02-22T07:41:38.181Z,100414.63
2023-02-22T07:44:14.419Z,100414.63
2023-02-22T07:46:41.270Z,100417.41
2023-02-22T07:49:08.112Z,100420.09
2023-02-22T07:51:35.027Z,100416.06
2023-02-22T07:54:01.854Z,100417.00
2023-02-22T07:56:28.667Z,100423.03
2023-02-22T07:58:55.537Z,100419.69
2023-02-22T08:01:22.374Z,100420.69
2023-02-22T08:03:49.438Z,100415.72
2023-02-22T08:06:16.578Z,100411.59
2023-02-22T08:08:43.550Z,100411.69
2023-02-22T08:11:13.706Z,100417.88
2023-02-22T08:13:40.632Z,100412.88
2023-02-22T08:16:07.587Z,100410.41
2023-02-22T08:18:34.430Z,100416.56
2023-02-22T08:21:01.399Z,100419.06
2023-02-22T08:23:28.325Z,100410.53
2023-02-22T08:25:55.608Z,100418.47
2023-02-22T08:28:24.397Z,100414.34
2023-02-22T08:30:51.693Z,100417.03
2023-02-22T08:33:19.945Z,100412.06
2023-02-22T08:35:49.867Z,100408.66
2023-02-22T08:38:27.241Z,100413.78
2023-02-22T08:40:54.677Z,100414.88
2023-02-22T08:43:22.377Z,100410.38
2023-02-22T08:45:49.843Z,100412.34
2023-02-22T08:48:17.491Z,100414.19
2023-02-22T08:50:44.643Z,100416.03
2023-02-22T08:53:13.745Z,100411.75
2023-02-22T08:55:42.036Z,100417.91
2023-02-22T08:58:09.634Z,100417.00
2023-02-22T09:00:38.952Z,100413.56
2023-02-22T09:03:09.166Z,100421.44
2023-02-22T09:05:36.453Z,100415.59
2023-02-22T09:08:03.642Z,100420.00
2023-02-22T09:10:32.565Z,100409.94
2023-02-22T09:13:01.516Z,100414.38
2023-02-22T09:15:29.318Z,100419.66
2023-02-22T09:17:56.472Z,100420.59
2023-02-22T09:20:24.620Z,100420.63
2023-02-22T09:22:51.949Z,100421.63
2023-02-22T09:25:20.846Z,100426.78
2023-02-22T09:27:49.160Z,100419.81
2023-02-22T09:30:19.101Z,100425.03
2023-02-22T09:32:46.257Z,100426.00
2023-02-22T09:35:13.385Z,100422.81
2023-02-22T09:37:40.332Z,100432.78
2023-02-22T09:40:10.029Z,100432.47
2023-02-22T09:42:46.118Z,100436.22
2023-02-22T09:45:23.902Z,100428.91
2023-02-22T09:48:08.063Z,100442.72
2023-02-22T09:50:43.511Z,100434.25
2023-02-22T09:53:43.890Z,100433.28
2023-02-22T09:56:18.395Z,100446.59
2023-02-22T09:58:47.901Z,100445.75
2023-02-22T10:01:39.254Z,100434.81
2023-02-22T10:04:37.345Z,100449.97
2023-02-22T10:07:26.683Z,100441.50
2023-02-22T10:09:57.740Z,100450.81
2023-02-22T10:12:49.329Z,100457.81
2023-02-22T10:15:47.620Z,100453.53
2023-02-22T10:18:48.356Z,100458.94
2023-02-22T10:21:48.658Z,100457.78
2023-02-22T10:24:49.417Z,100454.81
2023-02-22T10:27:20.433Z,100468.09
2023-02-22T10:29:51.407Z,100470.72
2023-02-22T10:32:26.443Z,100454.94
2023-02-22T10:34:54.832Z,100454.13
2023-02-22T10:37:28.519Z,100463.38
2023-02-22T10:40:20.477Z,100462.28
2023-02-22T10:42:47.670Z,100462.47
2023-02-22T10:45:22.605Z,100460.63
2023-02-22T10:47:50.697Z,100461.78
2023-02-22T10:50:18.309Z,100474.69
2023-02-22T10:52:45.239Z,100466.56
2023-02-22T10:55:16.450Z,100467.66
2023-02-22T10:57:48.409Z,100468.44
2023-02-22T11:00:26.517Z,100461.75
2023-02-22T11:02:59.336Z,100462.41
2023-02-22T11:05:36.967Z,100466.66
2023-02-22T11:08:25.720Z,100472.38
2023-02-22T11:10:55.844Z,100466.78
2023-02-22T11:13:31.213Z,100464.06
2023-02-22T11:16:23.035Z,100487.91
2023-02-22T11:18:50.077Z,100470.94
2023-02-22T11:21:22.893Z,100469.38
2023-02-22T11:23:50.545Z,100478.03
2023-02-22T11:26:20.764Z,100490.19
2023-02-22T11:28:50.487Z,100472.91
2023-02-22T11:31:21.777Z,100484.66
2023-02-22T11:36:40.969Z,100483.72
2023-02-22T11:39:28.957Z,100483.03
2023-02-22T11:41:56.974Z,100475.66
2023-02-22T11:44:30.231Z,100491.69
2023-02-22T11:47:01.550Z,100494.38
2023-02-22T11:49:36.644Z,100496.41
2023-02-22T11:52:28.435Z,100491.03
2023-02-22T11:55:41.265Z,100492.78
2023-02-22T11:58:34.803Z,100494.84
2023-02-22T12:01:17.619Z,100493.97
2023-02-22T12:04:16.034Z,100492.44
2023-02-22T12:06:59.064Z,100485.84
2023-02-22T12:09:54.502Z,100485.00
2023-02-22T12:12:38.705Z,100496.56
2023-02-22T12:15:15.178Z,100481.78
2023-02-22T12:18:09.456Z,100494.34
2023-02-22T12:20:45.785Z,100486.44
2023-02-22T12:23:30.186Z,100482.13
2023-02-22T12:26:05.807Z,100485.81
2023-02-22T12:28:37.052Z,100488.06
2023-02-22T12:31:10.540Z,100489.13
2023-02-22T12:33:49.663Z,100495.25
2023-02-22T12:36:20.996Z,100486.03
2023-02-22T12:38:53.235Z,100482.47
2023-02-22T12:41:38.467Z,100483.88
2023-02-22T12:44:20.314Z,100486.72
2023-02-22T12:46:50.178Z,100489.78
2023-02-22T12:49:28.759Z,100489.00
2023-02-22T12:52:35.449Z,100487.53
2023-02-22T12:55:23.600Z,100488.56
2023-02-22T12:58:18.315Z,100485.97
2023-02-22T13:01:07.374Z,100482.16
2023-02-22T13:03:42.286Z,100474.59
2023-02-22T13:06:42.729Z,100481.56
2023-02-22T13:09:43.080Z,100485.38
2023-02-22T13:12:37.678Z,100490.88
2023-02-22T13:15:24.391Z,100487.69
2023-02-22T13:18:08.836Z,100493.31
2023-02-22T13:20:44.863Z,100496.59
2023-02-22T13:23:48.937Z,100479.72
2023-02-22T13:26:25.467Z,100491.69
2023-02-22T13:29:02.921Z,100501.09
2023-02-22T13:31:51.257Z,100510.94
2023-02-22T13:34:50.977Z,100496.94
2023-02-22T13:37:49.349Z,100508.69
2023-02-22T13:40:45.857Z,100512.47
2023-02-22T13:43:52.596Z,100505.44
2023-02-22T13:46:41.805Z,100502.16
2023-02-22T13:49:34.849Z,100506.63
2023-02-22T13:52:03.851Z,100489.94
2023-02-22T13:54:54.716Z,100500.56
2023-02-22T13:57:32.035Z,100492.91
2023-02-22T14:00:21.401Z,100521.84
2023-02-22T14:03:30.165Z,100506.47
2023-02-22T14:06:01.042Z,100498.47
2023-02-22T14:08:43.670Z,100495.50
2023-02-22T14:11:43.133Z,100508.97
2023-02-22T14:14:12.133Z,100505.03
2023-02-22T14:16:39.290Z,100512.66
2023-02-22T14:19:14.774Z,100503.84
2023-02-22T14:22:02.649Z,100501.31
2023-02-22T14:24:51.220Z,100492.81
2023-02-22T14:27:18.508Z,100499.81
2023-02-22T14:29:54.774Z,100498.75
2023-02-22T14:32:31.478Z,100491.00
2023-02-22T14:35:01.148Z,100491.00
2023-02-22T14:37:32.042Z,100495.34
2023-02-22T14:40:13.025Z,100508.78
2023-02-22T14:42:44.677Z,100487.84
2023-02-22T14:45:28.419Z,100496.53
2023-02-22T14:48:33.690Z,100496.91
2023-02-22T14:51:15.600Z,100499.66
2023-02-22T14:53:54.389Z,100493.06
2023-02-22T14:56:23.621Z,100484.09
2023-02-22T14:59:19.880Z,100497.78
2023-02-22T15:01:58.688Z,100496.88
2023-02-22T15:04:33.055Z,100500.97
2023-02-22T15:07:01.684Z,100491.09
2023-02-22T15:09:34.738Z,100496.16
2023-02-22T15:12:18.302Z,100511.56
2023-02-22T15:14:47.761Z,100507.03
2023-02-22T15:17:21.018Z,100500.34
2023-02-22T15:19:48.969Z,100501.19
2023-02-22T15:22:22.425Z,100503.06
2023-02-22T15:25:02.204Z,100496.38
2023-02-22T15:27:29.281Z,100496.16
2023-02-22T15:30:04.960Z,100500.16
2023-02-22T15:32:37.901Z,100494.50
2023-02-22T15:35:35.463Z,100500.28
2023-02-22T15:38:16.356Z,100501.47
2023-02-22T15:40:45.331Z,100489.91
2023-02-22T15:43:20.083Z,100507.16
2023-02-22T15:45:47.564Z,100506.75
2023-02-22T15:48:15.892Z,100490.47
2023-02-22T15:51:07.255Z,100513.34
2023-02-22T15:53:53.582Z,100516.13
2023-02-22T15:56:30.033Z,100512.16
2023-02-22T15:59:18.486Z,100516.63
2023-02-22T16:01:47.554Z,100516.63
2023-02-22T16:04:20.097Z,100516.41
2023-02-22T16:06:47.497Z,100512.59
2023-02-22T16:09:25.508Z,100528.75
2023-02-22T16:12:09.613Z,100516.31
2023-02-22T16:14:42.866Z,100525.63
2023-02-22T16:17:37.847Z,100531.16
2023-02-22T16:20:33.009Z,100539.13
2023-02-22T16:23:00.299Z,100546.50
2023-02-22T16:25:33.136Z,100544.28
2023-02-22T16:28:03.234Z,100543.28
2023-02-22T16:30:38.158Z,100540.88
2023-02-22T16:33:13.502Z,100539.31
2023-02-22T16:35:41.109Z,100541.69
2023-02-22T16:38:17.134Z,100547.72
2023-02-22T16:40:52.452Z,100541.22
2023-02-22T16:43:22.266Z,100541.28
2023-02-22T16:45:49.483Z,100544.88
2023-02-22T16:48:22.283Z,100546.44
2023-02-22T16:50:51.363Z,100544.25
2023-02-22T16:53:21.387Z,100555.63
2023-02-22T16:55:48.866Z,100544.28
2023-02-22T16:58:17.270Z,100553.84
2023-02-22T17:00:44.441Z,100548.81
2023-02-22T17:03:16.044Z,100551.38
2023-02-22T17:05:43.382Z,100562.03
2023-02-22T17:08:10.255Z,100561.56
2023-02-22T17:10:37.373Z,100552.47
2023-02-22T17:13:20.325Z,100543.81
2023-02-22T17:15:49.299Z,100555.72
2023-02-22T17:18:22.556Z,100551.63
2023-02-22T17:20:54.469Z,100548.63
2023-02-22T17:23:23.428Z,100544.38
2023-02-22T17:25:56.429Z,100541.97
2023-02-22T17:28:24.988Z,100550.00
2023-02-22T17:30:53.425Z,100549.25
2023-02-22T17:33:27.757Z,100556.28
2023-02-22T17:35:57.871Z,100564.28
2023-02-22T17:38:27.064Z,100563.50
2023-02-22T17:40:55.006Z,100563.50
2023-02-22T17:43:22.149Z,100562.63
2023-02-22T17:45:49.462Z,100563.47
2023-02-22T17:48:17.889Z,100556.63
2023-02-22T17:50:46.536Z,100555.66
2023-02-22T17:53:13.854Z,100552.97
2023-02-22T17:55:42.137Z,100544.38
2023-02-22T17:58:14.895Z,100553.81
2023-02-22T18:00:45.777Z,100549.41
2023-02-22T18:03:16.263Z,100542.50
2023-02-22T18:05:46.263Z,100545.03
2023-02-22T18:08:14.872Z,100549.16
2023-02-22T18:10:42.725Z,100543.16
2023-02-22T18:13:10.435Z,100549.13
2023-02-22T18:15:40.028Z,100561.19
2023-02-22T18:18:15.692Z,100555.22
2023-02-22T18:20:45.132Z,100557.78
2023-02-22T18:23:16.222Z,100553.47
2023-02-22T18:26:07.595Z,100555.13
2023-02-22T18:28:36.982Z,100553.44
2023-02-22T18:31:09.364Z,100545.69
2023-02-22T18:33:36.637Z,100553.38
2023-02-22T18:36:04.732Z,100548.13
2023-02-22T18:38:31.730Z,100554.13
2023-02-22T18:41:04.032Z,100556.69
2023-02-22T18:43:31.942Z,100564.53
2023-02-22T18:46:18.784Z,100547.31
2023-02-22T18:48:47.301Z,100550.81
2023-02-22T18:51:17.232Z,100543.03
2023-02-22T18:53:47.128Z,100540.38
2023-02-22T18:56:18.033Z,100534.38
2023-02-22T18:58:45.211Z,100542.09
2023-02-22T19:01:17.593Z,100545.41
2023-02-22T19:03:47.338Z,100542.78
2023-02-22T19:06:16.165Z,100541.06
2023-02-22T19:08:44.652Z,100541.84
2023-02-22T19:11:17.968Z,100539.34
2023-02-22T19:13:46.976Z,100535.09
2023-02-22T19:16:15.505Z,100541.06
2023-02-22T19:18:44.463Z,100534.91
2023-02-22T19:21:13.097Z,100533.94
2023-02-22T19:23:47.737Z,100527.00
2023-02-22T19:26:20.485Z,100538.16
2023-02-22T19:28:49.117Z,100535.63
2023-02-22T19:31:20.116Z,100537.22
2023-02-22T19:33:51.598Z,100543.16
2023-02-22T19:36:20.412Z,100531.16
2023-02-22T19:38:50.177Z,100529.41
2023-02-22T19:41:27.902Z,100537.09
2023-02-22T19:43:56.499Z,100531.16
2023-02-22T19:46:37.328Z,100532.84
2023-02-22T19:49:09.190Z,100528.53
2023-02-22T19:51:42.202Z,100529.38
2023-02-22T19:54:19.482Z,100534.38
2023-02-22T19:56:50.883Z,100528.50
2023-02-22T19:59:22.783Z,100528.50
2023-02-22T20:01:53.617Z,100528.41
2023-02-22T20:04:24.302Z,100517.28
2023-02-22T20:06:54.918Z,100520.66
2023-02-22T20:09:24.453Z,100523.94
2023-02-22T20:11:54.457Z,100525.75
2023-02-22T20:14:24.811Z,100524.88
2023-02-22T20:16:53.599Z,100525.72
2023-02-22T20:19:23.429Z,100535.97
2023-02-22T20:21:52.515Z,100526.50
2023-02-22T20:24:21.645Z,100520.47
2023-02-22T20:26:51.322Z,100528.16
2023-02-22T20:29:18.229Z,100519.53
2023-02-22T20:31:52.476Z,100528.91
2023-02-22T20:34:20.574Z,100527.25
2023-02-22T20:36:48.011Z,100521.22
2023-02-22T20:39:16.807Z,100524.56
2023-02-22T20:41:46.650Z,100518.44
2023-02-22T20:44:15.737Z,100519.94
2023-02-22T20:46:43.510Z,100519.91
2023-02-22T20:49:12.954Z,100526.56
2023-02-22T20:51:40.599Z,100517.06
2023-02-22T20:54:11.515Z,100515.25
2023-02-22T20:56:40.871Z,100525.47
2023-02-22T20:59:09.020Z,100521.19
2023-02-22T21:01:36.663Z,100514.34
2023-02-22T21:04:06.439Z,100512.63
2023-02-22T21:06:35.697Z,100519.50
2023-02-22T21:09:07.293Z,100527.31
2023-02-22T21:11:35.031Z,100525.72
2023-02-22T21:14:02.165Z,100523.25
2023-02-22T21:16:32.395Z,100516.47
2023-02-22T21:19:02.105Z,100518.22
2023-02-22T21:21:35.348Z,100525.84
2023-02-22T21:24:03.458Z,100523.28
2023-02-22T21:26:32.188Z,100520.72
2023-02-22T21:29:05.006Z,100524.13
2023-02-22T21:31:33.172Z,100523.25
2023-02-22T21:34:00.982Z,100515.44
2023-02-22T21:36:28.915Z,100513.63
2023-02-22T21:39:23.060Z,100516.13
2023-02-22T21:41:51.641Z,100509.41
2023-02-22T21:44:19.083Z,100512.91
2023-02-22T21:46:48.878Z,100508.59
2023-02-22T21:49:16.254Z,100502.66
2023-02-22T21:51:44.983Z,100512.16
2023-02-22T21:54:12.329Z,100515.59
2023-02-22T21:56:42.694Z,100505.38
2023-02-22T21:59:15.600Z,100513.94
2023-02-22T22:01:47.944Z,100516.50
2023-02-22T22:04:19.001Z,100506.38
2023-02-22T22:06:47.927Z,100504.63
2023-02-22T22:09:21.981Z,100511.47
2023-02-22T22:11:51.697Z,100515.75
2023-02-22T22:14:19.881Z,100518.38
2023-02-22T22:16:48.446Z,100518.34
2023-02-22T22:19:15.624Z,100514.91
2023-02-22T22:21:42.545Z,100523.41
2023-02-22T22:24:10.400Z,100523.41
2023-02-22T22:26:37.807Z,100526.03
2023-02-22T22:29:05.244Z,100529.50
2023-02-22T22:31:32.882Z,100523.50
2023-02-22T22:33:59.822Z,100528.59
2023-02-22T22:36:27.404Z,100520.78
2023-02-22T22:38:57.598Z,100522.41
2023-02-22T22:41:25.218Z,100523.25
2023-02-22T22:43:54.165Z,100522.25
2023-02-22T22:46:22.293Z,100511.84
2023-02-22T22:48:49.143Z,100520.38
2023-02-22T22:51:20.328Z,100521.09
2023-02-22T22:53:49.011Z,100514.97
2023-02-22T22:56:18.989Z,100512.19
2023-02-22T22:58:52.084Z,100507.63
2023-02-22T23:01:26.904Z,100506.72
2023-02-22T23:04:02.375Z,100499.66
2023-02-22T23:06:33.132Z,100502.91
2023-02-22T23:09:10.399Z,100502.81
2023-02-22T23:11:39.703Z,100502.75
2023-02-22T23:14:07.122Z,100503.56
2023-02-22T23:16:33.994Z,100500.09
2023-02-22T23:19:00.822Z,100500.13
2023-02-22T23:21:27.855Z,100504.34
2023-02-22T23:23:55.985Z,100502.59
2023-02-22T23:26:26.646Z,100496.47
2023-02-22T23:28:55.781Z,100491.94
2023-02-22T23:31:23.484Z,100489.19
2023-02-22T23:33:50.671Z,100501.81
2023-02-22T23:36:18.821Z,100499.03
2023-02-22T23:38:46.185Z,100499.75
2023-02-22T23:41:17.064Z,100503.81
2023-02-22T23:43:45.917Z,100502.28
2023-02-22T23:46:18.668Z,100498.84
2023-02-22T23:48:52.225Z,100508.41
2023-02-22T23:51:25.129Z,100502.50
2023-02-22T23:53:55.768Z,100506.03
2023-02-22T23:56:26.574Z,100497.44
2023-02-22T23:58:57.447Z,100492.44
